sensor_id;sensor_type;location;lat;lon;timestamp;pressure;altitude;pressure_sealevel;temperature;humidity
29247;BME280;16272;48.188;9.964;2023-07-31T00:00:49;95953.06;;;12.98;77.96
29247;BME280;16272;48.188;9.964;2023-07-31T00:03:14;95942.97;;;13.18;76.00
29247;BME280;16272;48.188;9.964;2023-07-31T00:05:39;95940.78;;;13.05;77.00
29247;BME280;16272;48.188;9.964;2023-07-31T00:08:05;95940.25;;;12.94;77.34
29247;BME280;16272;48.188;9.964;2023-07-31T00:10:30;95935.75;;;12.94;77.15
29247;BME280;16272;48.188;9.964;2023-07-31T00:12:55;95934.94;;;13.02;76.00
29247;BME280;16272;48.188;9.964;2023-07-31T00:15:21;95930.91;;;12.98;76.41
29247;BME280;16272;48.188;9.964;2023-07-31T00:17:46;95923.53;;;12.75;77.41
29247;BME280;16272;48.188;9.964;2023-07-31T00:20:12;95921.63;;;13.02;76.33
29247;BME280;16272;48.188;9.964;2023-07-31T00:22:38;95917.59;;;13.06;75.97
29247;BME280;16272;48.188;9.964;2023-07-31T00:25:03;95920.44;;;13.04;76.48
29247;BME280;16272;48.188;9.964;2023-07-31T00:27:31;95920.06;;;12.83;77.02
29247;BME280;16272;48.188;9.964;2023-07-31T00:29:56;95929.06;;;12.90;76.42
29247;BME280;16272;48.188;9.964;2023-07-31T00:32:22;95918.06;;;12.93;76.03
29247;BME280;16272;48.188;9.964;2023-07-31T00:34:47;95929.72;;;12.76;77.90
29247;BME280;16272;48.188;9.964;2023-07-31T00:37:12;95921.50;;;12.69;78.23
29247;BME280;16272;48.188;9.964;2023-07-31T00:39:38;95932.63;;;12.56;78.30
29247;BME280;16272;48.188;9.964;2023-07-31T00:42:03;95931.97;;;12.62;77.78
29247;BME280;16272;48.188;9.964;2023-07-31T00:44:29;95929.34;;;12.71;77.61
29247;BME280;16272;48.188;9.964;2023-07-31T00:46:54;95925.69;;;12.72;77.27
29247;BME280;16272;48.188;9.964;2023-07-31T00:49:22;95926.66;;;12.62;76.24
29247;BME280;16272;48.188;9.964;2023-07-31T00:51:47;95929.00;;;12.65;77.22
29247;BME280;16272;48.188;9.964;2023-07-31T00:54:13;95930.00;;;12.64;79.04
29247;BME280;16272;48.188;9.964;2023-07-31T00:56:40;95925.88;;;12.78;77.71
29247;BME280;16272;48.188;9.964;2023-07-31T00:59:05;95930.41;;;12.86;76.27
29247;BME280;16272;48.188;9.964;2023-07-31T01:01:31;95924.75;;;12.97;75.52
29247;BME280;16272;48.188;9.964;2023-07-31T01:03:56;95935.47;;;12.55;78.06
29247;BME280;16272;48.188;9.964;2023-07-31T01:09:03;95934.97;;;12.51;78.08
29247;BME280;16272;48.188;9.964;2023-07-31T01:11:45;95927.72;;;12.35;77.24
29247;BME280;16272;48.188;9.964;2023-07-31T01:14:12;95915.97;;;12.54;79.21
29247;BME280;16272;48.188;9.964;2023-07-31T01:16:38;95922.28;;;12.45;78.27
29247;BME280;16272;48.188;9.964;2023-07-31T01:19:03;95931.22;;;12.36;77.51
29247;BME280;16272;48.188;9.964;2023-07-31T01:26:38;95929.34;;;12.28;79.10
29247;BME280;16272;48.188;9.964;2023-07-31T01:29:13;95921.97;;;12.56;78.02
29247;BME280;16272;48.188;9.964;2023-07-31T01:31:41;95919.72;;;12.35;78.46
29247;BME280;16272;48.188;9.964;2023-07-31T01:34:09;95925.16;;;12.60;77.68
29247;BME280;16272;48.188;9.964;2023-07-31T01:36:36;95929.84;;;12.23;76.88
29247;BME280;16272;48.188;9.964;2023-07-31T01:39:02;95921.31;;;12.20;78.34
29247;BME280;16272;48.188;9.964;2023-07-31T01:41:27;95911.81;;;12.17;79.25
29247;BME280;16272;48.188;9.964;2023-07-31T01:43:53;95912.66;;;12.18;79.32
29247;BME280;16272;48.188;9.964;2023-07-31T01:46:18;95899.19;;;12.19;78.79
29247;BME280;16272;48.188;9.964;2023-07-31T01:48:43;95895.88;;;12.25;77.59
29247;BME280;16272;48.188;9.964;2023-07-31T01:51:09;95897.97;;;12.05;78.06
29247;BME280;16272;48.188;9.964;2023-07-31T01:53:34;95893.78;;;12.03;78.17
29247;BME280;16272;48.188;9.964;2023-07-31T01:55:59;95892.44;;;11.99;78.15
29247;BME280;16272;48.188;9.964;2023-07-31T01:58:25;95894.38;;;12.23;77.18
29247;BME280;16272;48.188;9.964;2023-07-31T02:00:50;95893.53;;;12.22;77.92
29247;BME280;16272;48.188;9.964;2023-07-31T02:03:16;95892.84;;;12.12;79.50
29247;BME280;16272;48.188;9.964;2023-07-31T02:05:45;95894.03;;;12.26;78.08
29247;BME280;16272;48.188;9.964;2023-07-31T02:08:10;95887.84;;;12.17;79.09
29247;BME280;16272;48.188;9.964;2023-07-31T02:10:36;95881.63;;;12.08;78.85
29247;BME280;16272;48.188;9.964;2023-07-31T02:13:01;95880.47;;;12.03;78.87
29247;BME280;16272;48.188;9.964;2023-07-31T02:15:29;95877.59;;;11.96;77.99
29247;BME280;16272;48.188;9.964;2023-07-31T02:17:54;95874.66;;;11.81;78.54
29247;BME280;16272;48.188;9.964;2023-07-31T02:20:19;95867.69;;;12.14;77.71
29247;BME280;16272;48.188;9.964;2023-07-31T02:22:45;95864.50;;;12.03;77.00
29247;BME280;16272;48.188;9.964;2023-07-31T02:25:10;95862.91;;;12.26;76.95
29247;BME280;16272;48.188;9.964;2023-07-31T02:27:35;95864.00;;;12.50;75.86
29247;BME280;16272;48.188;9.964;2023-07-31T02:30:01;95867.28;;;12.36;75.99
29247;BME280;16272;48.188;9.964;2023-07-31T02:32:26;95864.63;;;12.36;75.97
29247;BME280;16272;48.188;9.964;2023-07-31T02:34:51;95870.88;;;12.18;76.28
29247;BME280;16272;48.188;9.964;2023-07-31T02:37:16;95875.09;;;11.94;78.81
29247;BME280;16272;48.188;9.964;2023-07-31T02:39:42;95878.00;;;11.83;79.75
29247;BME280;16272;48.188;9.964;2023-07-31T02:42:07;95871.97;;;11.99;78.03
29247;BME280;16272;48.188;9.964;2023-07-31T02:44:32;95873.03;;;11.88;77.59
29247;BME280;16272;48.188;9.964;2023-07-31T02:46:58;95869.22;;;11.91;77.65
29247;BME280;16272;48.188;9.964;2023-07-31T02:49:23;95868.84;;;12.04;76.42
29247;BME280;16272;48.188;9.964;2023-07-31T02:51:48;95868.72;;;11.87;77.87
29247;BME280;16272;48.188;9.964;2023-07-31T02:54:14;95868.88;;;11.86;78.42
29247;BME280;16272;48.188;9.964;2023-07-31T02:56:39;95868.72;;;11.87;78.60
29247;BME280;16272;48.188;9.964;2023-07-31T02:59:04;95872.47;;;11.76;78.91
29247;BME280;16272;48.188;9.964;2023-07-31T03:01:30;95866.72;;;11.89;78.05
29247;BME280;16272;48.188;9.964;2023-07-31T03:03:56;95866.53;;;11.83;77.38
29247;BME280;16272;48.188;9.964;2023-07-31T03:06:21;95867.47;;;11.73;77.95
29247;BME280;16272;48.188;9.964;2023-07-31T03:08:47;95871.66;;;11.76;77.91
29247;BME280;16272;48.188;9.964;2023-07-31T03:11:12;95860.31;;;11.74;78.37
29247;BME280;16272;48.188;9.964;2023-07-31T03:13:37;95866.69;;;11.81;78.44
29247;BME280;16272;48.188;9.964;2023-07-31T03:16:03;95860.53;;;11.81;79.34
29247;BME280;16272;48.188;9.964;2023-07-31T03:18:28;95861.50;;;12.06;79.02
29247;BME280;16272;48.188;9.964;2023-07-31T03:20:53;95857.16;;;12.05;79.08
29247;BME280;16272;48.188;9.964;2023-07-31T03:23:19;95859.53;;;12.08;79.51
29247;BME280;16272;48.188;9.964;2023-07-31T03:25:57;95854.22;;;12.16;80.24
29247;BME280;16272;48.188;9.964;2023-07-31T03:28:23;95858.25;;;12.20;80.43
29247;BME280;16272;48.188;9.964;2023-07-31T03:30:48;95867.63;;;12.41;79.86
29247;BME280;16272;48.188;9.964;2023-07-31T03:33:14;95862.97;;;12.43;79.61
29247;BME280;16272;48.188;9.964;2023-07-31T03:35:39;95860.28;;;12.35;79.54
29247;BME280;16272;48.188;9.964;2023-07-31T03:38:04;95859.50;;;12.50;77.94
29247;BME280;16272;48.188;9.964;2023-07-31T03:40:29;95854.41;;;12.23;79.92
29247;BME280;16272;48.188;9.964;2023-07-31T03:42:55;95857.66;;;12.43;78.66
29247;BME280;16272;48.188;9.964;2023-07-31T03:45:20;95853.94;;;12.27;79.91
29247;BME280;16272;48.188;9.964;2023-07-31T03:47:45;95847.97;;;12.25;80.57
29247;BME280;16272;48.188;9.964;2023-07-31T03:50:11;95851.75;;;12.23;81.37
29247;BME280;16272;48.188;9.964;2023-07-31T03:52:36;95840.47;;;12.29;80.99
29247;BME280;16272;48.188;9.964;2023-07-31T03:55:01;95854.78;;;12.36;81.16
29247;BME280;16272;48.188;9.964;2023-07-31T03:57:27;95846.00;;;12.44;80.40
29247;BME280;16272;48.188;9.964;2023-07-31T03:59:52;95849.34;;;12.54;80.14
29247;BME280;16272;48.188;9.964;2023-07-31T04:02:17;95836.63;;;12.82;79.74
29247;BME280;16272;48.188;9.964;2023-07-31T04:04:43;95837.59;;;12.81;80.28
29247;BME280;16272;48.188;9.964;2023-07-31T04:07:09;95836.47;;;12.92;79.60
29247;BME280;16272;48.188;9.964;2023-07-31T04:09:34;95839.13;;;12.84;79.63
29247;BME280;16272;48.188;9.964;2023-07-31T04:11:59;95840.13;;;12.91;79.08
29247;BME280;16272;48.188;9.964;2023-07-31T04:14:25;95830.78;;;13.12;77.17
29247;BME280;16272;48.188;9.964;2023-07-31T04:16:50;95838.28;;;13.08;77.82
29247;BME280;16272;48.188;9.964;2023-07-31T04:19:15;95836.97;;;13.29;77.55
29247;BME280;16272;48.188;9.964;2023-07-31T04:21:42;95842.66;;;13.42;78.07
29247;BME280;16272;48.188;9.964;2023-07-31T04:24:07;95845.31;;;13.50;78.56
29247;BME280;16272;48.188;9.964;2023-07-31T04:26:32;95846.81;;;13.45;78.47
29247;BME280;16272;48.188;9.964;2023-07-31T04:28:58;95845.47;;;13.57;77.67
29247;BME280;16272;48.188;9.964;2023-07-31T04:31:23;95851.59;;;13.66;77.52
29247;BME280;16272;48.188;9.964;2023-07-31T04:33:48;95841.75;;;13.83;76.96
29247;BME280;16272;48.188;9.964;2023-07-31T04:36:14;95837.06;;;13.85;76.92
29247;BME280;16272;48.188;9.964;2023-07-31T04:38:39;95834.78;;;13.57;78.18
29247;BME280;16272;48.188;9.964;2023-07-31T04:41:06;95832.78;;;13.59;79.11
29247;BME280;16272;48.188;9.964;2023-07-31T04:43:31;95828.22;;;13.92;78.13
29247;BME280;16272;48.188;9.964;2023-07-31T04:45:57;95829.72;;;13.78;79.05
29247;BME280;16272;48.188;9.964;2023-07-31T04:48:23;95829.03;;;13.93;78.21
29247;BME280;16272;48.188;9.964;2023-07-31T04:50:48;95824.63;;;14.08;78.26
29247;BME280;16272;48.188;9.964;2023-07-31T04:53:13;95829.28;;;14.14;78.81
29247;BME280;16272;48.188;9.964;2023-07-31T04:55:39;95824.50;;;13.93;78.97
29247;BME280;16272;48.188;9.964;2023-07-31T04:58:04;95824.63;;;14.08;78.58
29247;BME280;16272;48.188;9.964;2023-07-31T05:00:30;95824.75;;;14.23;78.33
29247;BME280;16272;48.188;9.964;2023-07-31T05:02:55;95828.81;;;14.11;79.00
29247;BME280;16272;48.188;9.964;2023-07-31T05:05:20;95819.84;;;14.35;77.87
29247;BME280;16272;48.188;9.964;2023-07-31T05:07:46;95823.78;;;14.47;77.74
29247;BME280;16272;48.188;9.964;2023-07-31T05:10:11;95825.25;;;14.27;78.11
29247;BME280;16272;48.188;9.964;2023-07-31T05:12:36;95831.50;;;14.42;77.26
29247;BME280;16272;48.188;9.964;2023-07-31T05:15:03;95826.03;;;14.67;77.33
29247;BME280;16272;48.188;9.964;2023-07-31T05:17:28;95823.44;;;14.82;76.21
29247;BME280;16272;48.188;9.964;2023-07-31T05:19:53;95831.34;;;14.75;77.10
29247;BME280;16272;48.188;9.964;2023-07-31T05:22:19;95827.16;;;14.81;77.50
29247;BME280;16272;48.188;9.964;2023-07-31T05:24:44;95824.28;;;14.82;76.71
29247;BME280;16272;48.188;9.964;2023-07-31T05:27:09;95829.53;;;14.67;76.88
29247;BME280;16272;48.188;9.964;2023-07-31T05:29:35;95824.88;;;14.93;77.30
29247;BME280;16272;48.188;9.964;2023-07-31T05:32:01;95827.22;;;14.96;77.04
29247;BME280;16272;48.188;9.964;2023-07-31T05:34:26;95823.44;;;15.05;76.21
29247;BME280;16272;48.188;9.964;2023-07-31T05:36:52;95815.97;;;15.23;76.87
29247;BME280;16272;48.188;9.964;2023-07-31T05:39:17;95821.16;;;15.40;76.20
29247;BME280;16272;48.188;9.964;2023-07-31T05:41:44;95822.00;;;15.55;75.41
29247;BME280;16272;48.188;9.964;2023-07-31T05:44:10;95826.06;;;15.89;75.00
29247;BME280;16272;48.188;9.964;2023-07-31T05:46:35;95819.28;;;16.23;74.87
29247;BME280;16272;48.188;9.964;2023-07-31T05:49:00;95822.16;;;16.37;75.10
29247;BME280;16272;48.188;9.964;2023-07-31T05:51:26;95819.63;;;16.50;73.64
29247;BME280;16272;48.188;9.964;2023-07-31T05:53:52;95823.34;;;16.34;73.77
29247;BME280;16272;48.188;9.964;2023-07-31T05:56:17;95811.50;;;16.80;73.04
29247;BME280;16272;48.188;9.964;2023-07-31T05:58:43;95811.41;;;17.09;73.05
29247;BME280;16272;48.188;9.964;2023-07-31T06:01:08;95805.94;;;16.96;72.13
29247;BME280;16272;48.188;9.964;2023-07-31T06:03:33;95799.00;;;16.87;73.24
29247;BME280;16272;48.188;9.964;2023-07-31T06:05:59;95799.00;;;16.50;71.99
29247;BME280;16272;48.188;9.964;2023-07-31T06:08:24;95804.81;;;16.54;73.07
29247;BME280;16272;48.188;9.964;2023-07-31T06:10:50;95800.44;;;17.04;71.67
29247;BME280;16272;48.188;9.964;2023-07-31T06:13:15;95801.31;;;16.90;70.88
29247;BME280;16272;48.188;9.964;2023-07-31T06:15:41;95805.13;;;16.81;71.02
29247;BME280;16272;48.188;9.964;2023-07-31T06:18:06;95797.84;;;16.75;69.25
29247;BME280;16272;48.188;9.964;2023-07-31T06:20:33;95802.03;;;16.84;70.04
29247;BME280;16272;48.188;9.964;2023-07-31T06:22:59;95797.75;;;17.04;70.01
29247;BME280;16272;48.188;9.964;2023-07-31T06:25:24;95802.69;;;17.01;70.42
29247;BME280;16272;48.188;9.964;2023-07-31T06:27:50;95804.78;;;17.05;69.27
29247;BME280;16272;48.188;9.964;2023-07-31T06:30:15;95801.66;;;17.52;68.07
29247;BME280;16272;48.188;9.964;2023-07-31T06:32:40;95797.16;;;17.59;68.83
29247;BME280;16272;48.188;9.964;2023-07-31T06:35:06;95800.13;;;17.92;67.84
29247;BME280;16272;48.188;9.964;2023-07-31T06:37:31;95796.75;;;18.18;67.50
29247;BME280;16272;48.188;9.964;2023-07-31T06:39:57;95796.91;;;18.10;64.86
29247;BME280;16272;48.188;9.964;2023-07-31T06:42:22;95792.25;;;17.91;62.78
29247;BME280;16272;48.188;9.964;2023-07-31T06:44:47;95789.31;;;17.86;63.73
29247;BME280;16272;48.188;9.964;2023-07-31T06:47:13;95785.09;;;17.76;63.52
29247;BME280;16272;48.188;9.964;2023-07-31T06:49:38;95777.38;;;17.95;63.48
29247;BME280;16272;48.188;9.964;2023-07-31T06:52:04;95771.38;;;18.41;63.73
29247;BME280;16272;48.188;9.964;2023-07-31T06:54:29;95777.50;;;18.22;61.72
29247;BME280;16272;48.188;9.964;2023-07-31T06:56:54;95784.09;;;18.12;61.75
29247;BME280;16272;48.188;9.964;2023-07-31T06:59:20;95784.16;;;18.26;62.53
29247;BME280;16272;48.188;9.964;2023-07-31T07:01:45;95787.00;;;18.17;62.27
29247;BME280;16272;48.188;9.964;2023-07-31T07:04:10;95783.16;;;18.33;62.66
29247;BME280;16272;48.188;9.964;2023-07-31T07:06:36;95786.50;;;17.72;61.35
29247;BME280;16272;48.188;9.964;2023-07-31T07:09:01;95791.50;;;17.75;62.13
29247;BME280;16272;48.188;9.964;2023-07-31T07:11:26;95786.41;;;17.87;63.57
29247;BME280;16272;48.188;9.964;2023-07-31T07:13:51;95788.94;;;17.95;62.85
29247;BME280;16272;48.188;9.964;2023-07-31T07:16:17;95782.09;;;18.28;60.73
29247;BME280;16272;48.188;9.964;2023-07-31T07:18:42;95791.09;;;18.13;62.13
29247;BME280;16272;48.188;9.964;2023-07-31T07:21:08;95791.69;;;18.02;60.74
29247;BME280;16272;48.188;9.964;2023-07-31T07:23:33;95786.28;;;18.37;61.20
29247;BME280;16272;48.188;9.964;2023-07-31T07:25:59;95784.59;;;18.36;59.63
29247;BME280;16272;48.188;9.964;2023-07-31T07:28:24;95779.38;;;18.83;59.38
29247;BME280;16272;48.188;9.964;2023-07-31T07:30:53;95784.81;;;18.89;61.63
29247;BME280;16272;48.188;9.964;2023-07-31T07:33:21;95780.66;;;19.07;60.29
29247;BME280;16272;48.188;9.964;2023-07-31T07:35:46;95773.22;;;19.02;59.82
29247;BME280;16272;48.188;9.964;2023-07-31T07:38:13;95765.34;;;19.54;59.54
29247;BME280;16272;48.188;9.964;2023-07-31T07:40:39;95770.75;;;19.88;60.38
29247;BME280;16272;48.188;9.964;2023-07-31T07:43:05;95773.03;;;19.04;59.92
29247;BME280;16272;48.188;9.964;2023-07-31T07:45:30;95781.72;;;19.19;60.35
29247;BME280;16272;48.188;9.964;2023-07-31T07:47:55;95770.13;;;19.52;60.38
29247;BME280;16272;48.188;9.964;2023-07-31T07:50:21;95777.41;;;19.45;60.75
29247;BME280;16272;48.188;9.964;2023-07-31T07:52:46;95780.28;;;19.30;57.79
29247;BME280;16272;48.188;9.964;2023-07-31T07:55:11;95767.00;;;18.88;57.86
29247;BME280;16272;48.188;9.964;2023-07-31T07:57:37;95772.19;;;19.10;58.00
29247;BME280;16272;48.188;9.964;2023-07-31T08:00:02;95776.13;;;19.27;57.20
29247;BME280;16272;48.188;9.964;2023-07-31T08:02:28;95775.72;;;19.44;57.96
29247;BME280;16272;48.188;9.964;2023-07-31T08:04:53;95784.41;;;19.33;57.60
29247;BME280;16272;48.188;9.964;2023-07-31T08:07:18;95780.25;;;19.70;56.38
29247;BME280;16272;48.188;9.964;2023-07-31T08:09:44;95764.31;;;19.62;55.47
29247;BME280;16272;48.188;9.964;2023-07-31T08:12:09;95765.50;;;20.06;56.01
29247;BME280;16272;48.188;9.964;2023-07-31T08:14:34;95763.56;;;20.20;55.90
29247;BME280;16272;48.188;9.964;2023-07-31T08:17:01;95756.53;;;20.19;55.15
29247;BME280;16272;48.188;9.964;2023-07-31T08:19:27;95756.63;;;19.79;54.89
29247;BME280;16272;48.188;9.964;2023-07-31T08:21:52;95765.75;;;19.71;56.61
29247;BME280;16272;48.188;9.964;2023-07-31T08:24:17;95769.88;;;19.87;51.75
29247;BME280;16272;48.188;9.964;2023-07-31T08:26:44;95772.56;;;19.94;53.86
29247;BME280;16272;48.188;9.964;2023-07-31T08:29:09;95774.75;;;20.30;53.15
29247;BME280;16272;48.188;9.964;2023-07-31T08:31:34;95760.19;;;20.45;53.57
29247;BME280;16272;48.188;9.964;2023-07-31T08:34:00;95754.44;;;20.21;53.36
29247;BME280;16272;48.188;9.964;2023-07-31T08:36:25;95747.50;;;19.93;51.94
29247;BME280;16272;48.188;9.964;2023-07-31T08:38:50;95748.13;;;19.69;55.49
29247;BME280;16272;48.188;9.964;2023-07-31T08:41:16;95736.34;;;19.63;53.19
29247;BME280;16272;48.188;9.964;2023-07-31T08:43:46;95740.19;;;20.14;53.27
29247;BME280;16272;48.188;9.964;2023-07-31T08:46:11;95731.00;;;21.30;55.22
29247;BME280;16272;48.188;9.964;2023-07-31T08:48:37;95723.88;;;21.36;52.37
29247;BME280;16272;48.188;9.964;2023-07-31T08:51:04;95729.09;;;21.31;50.98
29247;BME280;16272;48.188;9.964;2023-07-31T08:53:29;95710.09;;;21.88;50.92
29247;BME280;16272;48.188;9.964;2023-07-31T08:55:56;95713.75;;;21.75;49.13
29247;BME280;16272;48.188;9.964;2023-07-31T08:58:23;95721.44;;;22.15;51.39
29247;BME280;16272;48.188;9.964;2023-07-31T09:00:49;95717.53;;;21.93;49.63
29247;BME280;16272;48.188;9.964;2023-07-31T09:03:18;95727.72;;;21.72;50.94
29247;BME280;16272;48.188;9.964;2023-07-31T09:05:45;95717.16;;;21.20;49.59
29247;BME280;16272;48.188;9.964;2023-07-31T09:08:12;95724.09;;;21.09;48.32
29247;BME280;16272;48.188;9.964;2023-07-31T09:10:42;95716.38;;;20.88;49.39
29247;BME280;16272;48.188;9.964;2023-07-31T09:13:08;95720.03;;;20.62;49.04
29247;BME280;16272;48.188;9.964;2023-07-31T09:15:35;95722.69;;;20.23;49.23
29247;BME280;16272;48.188;9.964;2023-07-31T09:18:01;95716.53;;;20.93;50.44
29247;BME280;16272;48.188;9.964;2023-07-31T09:20:27;95716.03;;;21.28;50.37
29247;BME280;16272;48.188;9.964;2023-07-31T09:22:54;95711.03;;;21.06;50.19
29247;BME280;16272;48.188;9.964;2023-07-31T09:25:22;95714.66;;;22.06;50.84
29247;BME280;16272;48.188;9.964;2023-07-31T09:27:48;95707.69;;;22.17;48.71
29247;BME280;16272;48.188;9.964;2023-07-31T09:30:14;95702.00;;;21.19;48.16
29247;BME280;16272;48.188;9.964;2023-07-31T09:32:40;95709.91;;;21.39;48.17
29247;BME280;16272;48.188;9.964;2023-07-31T09:35:26;95705.19;;;21.35;47.73
29247;BME280;16272;48.188;9.964;2023-07-31T09:37:53;95708.66;;;21.42;49.72
29247;BME280;16272;48.188;9.964;2023-07-31T09:40:35;95699.31;;;22.18;50.63
29247;BME280;16272;48.188;9.964;2023-07-31T09:43:03;95696.03;;;22.35;49.80
29247;BME280;16272;48.188;9.964;2023-07-31T09:45:29;95685.41;;;21.16;46.41
29247;BME280;16272;48.188;9.964;2023-07-31T09:47:56;95685.44;;;21.59;49.40
29247;BME280;16272;48.188;9.964;2023-07-31T09:50:23;95685.81;;;21.38;49.27
29247;BME280;16272;48.188;9.964;2023-07-31T09:52:49;95682.78;;;22.45;49.99
29247;BME280;16272;48.188;9.964;2023-07-31T09:55:14;95675.25;;;22.47;50.46
29247;BME280;16272;48.188;9.964;2023-07-31T09:57:42;95679.47;;;22.25;48.76
29247;BME280;16272;48.188;9.964;2023-07-31T10:00:13;95672.34;;;22.91;47.07
29247;BME280;16272;48.188;9.964;2023-07-31T10:02:39;95682.81;;;22.08;46.94
29247;BME280;16272;48.188;9.964;2023-07-31T10:05:06;95673.56;;;23.07;46.58
29247;BME280;16272;48.188;9.964;2023-07-31T10:07:36;95676.31;;;22.88;48.37
29247;BME280;16272;48.188;9.964;2023-07-31T10:10:04;95673.06;;;22.07;49.67
29247;BME280;16272;48.188;9.964;2023-07-31T10:12:31;95670.50;;;22.31;47.81
29247;BME280;16272;48.188;9.964;2023-07-31T10:14:59;95669.16;;;22.52;47.71
29247;BME280;16272;48.188;9.964;2023-07-31T10:17:25;95664.56;;;22.52;46.80
29247;BME280;16272;48.188;9.964;2023-07-31T10:19:51;95658.94;;;21.87;49.18
29247;BME280;16272;48.188;9.964;2023-07-31T10:22:17;95641.56;;;22.13;48.52
29247;BME280;16272;48.188;9.964;2023-07-31T10:24:45;95649.78;;;23.09;49.62
29247;BME280;16272;48.188;9.964;2023-07-31T10:27:10;95640.22;;;22.52;46.61
29247;BME280;16272;48.188;9.964;2023-07-31T10:29:38;95631.31;;;21.84;47.85
29247;BME280;16272;48.188;9.964;2023-07-31T10:32:04;95635.03;;;22.02;47.78
29247;BME280;16272;48.188;9.964;2023-07-31T10:34:33;95631.09;;;22.35;47.04
29247;BME280;16272;48.188;9.964;2023-07-31T10:39:55;95632.66;;;21.94;47.27
29247;BME280;16272;48.188;9.964;2023-07-31T10:42:28;95616.38;;;22.73;48.27
29247;BME280;16272;48.188;9.964;2023-07-31T10:44:59;95616.66;;;22.41;46.87
29247;BME280;16272;48.188;9.964;2023-07-31T10:47:25;95611.03;;;22.24;47.00
29247;BME280;16272;48.188;9.964;2023-07-31T10:49:50;95607.28;;;22.25;48.06
29247;BME280;16272;48.188;9.964;2023-07-31T10:52:20;95597.84;;;22.46;50.47
29247;BME280;16272;48.188;9.964;2023-07-31T10:54:49;95581.56;;;24.29;46.01
29247;BME280;16272;48.188;9.964;2023-07-31T10:57:22;95590.75;;;23.99;45.09
29247;BME280;16272;48.188;9.964;2023-07-31T10:59:48;95593.38;;;23.82;45.43
29247;BME280;16272;48.188;9.964;2023-07-31T11:02:25;95592.94;;;23.85;44.81
29247;BME280;16272;48.188;9.964;2023-07-31T11:05:10;95589.97;;;23.87;46.12
29247;BME280;16272;48.188;9.964;2023-07-31T11:07:48;95583.69;;;24.72;47.67
29247;BME280;16272;48.188;9.964;2023-07-31T11:10:18;95581.59;;;23.24;46.98
29247;BME280;16272;48.188;9.964;2023-07-31T11:12:45;95580.56;;;22.47;47.98
29247;BME280;16272;48.188;9.964;2023-07-31T11:15:11;95583.97;;;21.94;47.90
29247;BME280;16272;48.188;9.964;2023-07-31T11:17:39;95583.59;;;21.60;47.19
29247;BME280;16272;48.188;9.964;2023-07-31T11:20:06;95575.72;;;22.07;47.56
29247;BME280;16272;48.188;9.964;2023-07-31T11:22:33;95580.47;;;22.24;49.46
29247;BME280;16272;48.188;9.964;2023-07-31T11:24:59;95565.13;;;24.07;48.54
29247;BME280;16272;48.188;9.964;2023-07-31T11:27:27;95559.03;;;25.30;47.05
29247;BME280;16272;48.188;9.964;2023-07-31T11:29:53;95548.69;;;25.27;44.93
29247;BME280;16272;48.188;9.964;2023-07-31T11:32:18;95555.34;;;24.34;46.83
29247;BME280;16272;48.188;9.964;2023-07-31T11:34:53;95557.13;;;24.74;44.72
29247;BME280;16272;48.188;9.964;2023-07-31T11:37:18;95567.13;;;24.40;45.56
29247;BME280;16272;48.188;9.964;2023-07-31T11:39:58;95569.03;;;25.07;44.73
29247;BME280;16272;48.188;9.964;2023-07-31T11:42:23;95561.75;;;25.30;44.98
29247;BME280;16272;48.188;9.964;2023-07-31T11:44:49;95569.16;;;25.74;47.40
29247;BME280;16272;48.188;9.964;2023-07-31T11:47:14;95558.53;;;25.50;45.18
29247;BME280;16272;48.188;9.964;2023-07-31T11:49:41;95555.53;;;26.18;40.10
29247;BME280;16272;48.188;9.964;2023-07-31T11:52:06;95551.94;;;25.68;43.44
29247;BME280;16272;48.188;9.964;2023-07-31T11:54:32;95561.28;;;25.33;44.10
29247;BME280;16272;48.188;9.964;2023-07-31T11:56:58;95557.31;;;26.07;44.90
29247;BME280;16272;48.188;9.964;2023-07-31T11:59:26;95558.84;;;25.54;44.00
29247;BME280;16272;48.188;9.964;2023-07-31T12:01:51;95549.97;;;25.41;40.72
29247;BME280;16272;48.188;9.964;2023-07-31T12:04:18;95564.09;;;24.87;45.25
29247;BME280;16272;48.188;9.964;2023-07-31T12:06:44;95566.09;;;24.58;46.83
29247;BME280;16272;48.188;9.964;2023-07-31T12:09:10;95566.69;;;23.62;46.18
29247;BME280;16272;48.188;9.964;2023-07-31T12:11:47;95570.25;;;23.51;46.33
29247;BME280;16272;48.188;9.964;2023-07-31T12:14:33;95566.00;;;22.60;46.68
29247;BME280;16272;48.188;9.964;2023-07-31T12:17:00;95557.19;;;22.65;47.94
29247;BME280;16272;48.188;9.964;2023-07-31T12:19:26;95557.53;;;22.56;47.18
29247;BME280;16272;48.188;9.964;2023-07-31T12:21:58;95555.78;;;22.98;48.57
29247;BME280;16272;48.188;9.964;2023-07-31T12:24:23;95544.81;;;22.57;49.69
29247;BME280;16272;48.188;9.964;2023-07-31T12:26:49;95545.31;;;22.78;49.49
29247;BME280;16272;48.188;9.964;2023-07-31T12:29:14;95529.41;;;23.17;48.37
29247;BME280;16272;48.188;9.964;2023-07-31T12:31:43;95523.75;;;23.18;47.66
29247;BME280;16272;48.188;9.964;2023-07-31T12:34:19;95518.44;;;23.23;46.59
29247;BME280;16272;48.188;9.964;2023-07-31T12:36:46;95509.47;;;23.46;46.89
29247;BME280;16272;48.188;9.964;2023-07-31T12:39:14;95502.97;;;23.88;46.87
29247;BME280;16272;48.188;9.964;2023-07-31T12:41:39;95498.69;;;24.55;47.83
29247;BME280;16272;48.188;9.964;2023-07-31T12:44:05;95492.25;;;24.27;45.57
29247;BME280;16272;48.188;9.964;2023-07-31T12:46:30;95496.88;;;24.77;45.76
29247;BME280;16272;48.188;9.964;2023-07-31T12:48:55;95502.00;;;23.94;46.12
29247;BME280;16272;48.188;9.964;2023-07-31T12:51:21;95493.00;;;24.39;47.13
29247;BME280;16272;48.188;9.964;2023-07-31T12:53:46;95487.63;;;24.11;46.73
29247;BME280;16272;48.188;9.964;2023-07-31T12:56:11;95475.50;;;23.84;46.04
29247;BME280;16272;48.188;9.964;2023-07-31T12:58:37;95465.66;;;23.66;44.70
29247;BME280;16272;48.188;9.964;2023-07-31T13:01:02;95467.84;;;24.61;45.51
29247;BME280;16272;48.188;9.964;2023-07-31T13:03:27;95463.78;;;24.13;42.88
29247;BME280;16272;48.188;9.964;2023-07-31T13:05:53;95456.84;;;23.88;45.36